Time;durP1;ratioP1;P1;durP2;ratioP2;P2;SDS_P1;SDS_P2;PMS_P1;PMS_P2;Temp;Humidity;BMP_temperature;BMP_pressure;BME280_temperature;BME280_humidity;BME280_pressure;Samples;Min_cycle;Max_cycle;Signal;HPM_P1;HPM_P2
2024/02/24 00:00:24;;;;;;;2.55;1.45;;;7.50;99.90;;;;;;5014907;28;20020;-83
2024/02/24 00:02:50;;;;;;;4.10;1.83;;;7.50;99.90;;;;;;5073293;28;20047;-85
2024/02/24 00:05:15;;;;;;;1.75;1.30;;;7.50;99.90;;;;;;5082117;28;20016;-83
2024/02/24 00:07:41;;;;;;;2.30;1.40;;;7.50;99.90;;;;;;5093668;28;20100;-85
2024/02/24 00:10:07;;;;;;;2.60;1.40;;;7.40;99.90;;;;;;5025926;28;20033;-84
2024/02/24 00:12:33;;;;;;;2.20;1.67;;;7.40;99.90;;;;;;5062539;28;20052;-84
2024/02/24 00:14:59;;;;;;;2.90;1.45;;;7.40;99.90;;;;;;5050768;28;20136;-84
2024/02/24 00:17:25;;;;;;;2.53;1.38;;;7.40;99.90;;;;;;5040731;28;20103;-84
2024/02/24 00:19:50;;;;;;;4.03;1.40;;;7.40;99.90;;;;;;5028072;28;20036;-84
2024/02/24 00:22:16;;;;;;;3.83;1.30;;;7.30;99.90;;;;;;5053857;28;20539;-84
2024/02/24 00:24:42;;;;;;;2.67;1.85;;;7.30;99.90;;;;;;5049472;28;20028;-84
2024/02/24 00:27:07;;;;;;;1.90;1.30;;;7.30;99.90;;;;;;5039712;28;20037;-84
2024/02/24 00:29:33;;;;;;;3.83;1.77;;;7.20;99.90;;;;;;5070840;28;20020;-85
2024/02/24 00:31:59;;;;;;;3.25;1.42;;;7.20;99.90;;;;;;5000645;28;20473;-84
2024/02/24 00:34:24;;;;;;;3.35;1.70;;;7.20;99.90;;;;;;5013614;28;20526;-84
2024/02/24 00:36:50;;;;;;;3.75;1.50;;;7.10;99.90;;;;;;5040466;28;20068;-84
2024/02/24 00:39:16;;;;;;;2.47;1.30;;;7.10;99.90;;;;;;5063305;28;20020;-84
2024/02/24 00:41:42;;;;;;;5.20;1.70;;;7.10;99.90;;;;;;5057207;28;20032;-85
2024/02/24 00:44:09;;;;;;;2.85;1.25;;;7.10;99.90;;;;;;5050311;28;20021;-83
2024/02/24 00:46:37;;;;;;;2.22;1.40;;;7.10;99.90;;;;;;5073249;28;20036;-83
2024/02/24 00:49:02;;;;;;;2.60;1.30;;;7.00;99.90;;;;;;5031436;28;20110;-84
2024/02/24 00:51:28;;;;;;;3.75;1.50;;;6.90;99.90;;;;;;5046836;28;20468;-84
2024/02/24 00:53:54;;;;;;;1.40;1.20;;;6.90;99.90;;;;;;5074351;28;20052;-84
2024/02/24 00:56:21;;;;;;;2.80;1.60;;;6.90;99.90;;;;;;5056646;28;20033;-83
2024/02/24 00:58:46;;;;;;;2.33;1.10;;;6.80;99.90;;;;;;5029050;28;20024;-84
2024/02/24 01:01:12;;;;;;;2.67;1.42;;;6.80;99.90;;;;;;5023359;28;20031;-84
2024/02/24 01:03:38;;;;;;;2.72;1.77;;;6.80;99.90;;;;;;5026144;28;20024;-84
2024/02/24 01:06:04;;;;;;;4.05;1.88;;;6.80;99.90;;;;;;5036455;28;20480;-84
2024/02/24 01:08:30;;;;;;;2.90;1.60;;;6.80;99.90;;;;;;5003908;28;20067;-84
2024/02/24 01:10:58;;;;;;;2.35;1.63;;;6.70;99.90;;;;;;5005223;28;20059;-83
2024/02/24 01:13:23;;;;;;;2.42;1.50;;;6.70;99.90;;;;;;5037237;28;20049;-83
2024/02/24 01:15:49;;;;;;;1.83;1.23;;;6.70;99.90;;;;;;5032578;28;20105;-83
2024/02/24 01:18:15;;;;;;;2.90;1.50;;;6.70;99.90;;;;;;5062804;28;20036;-84
2024/02/24 01:20:48;;;;;;;3.03;1.55;;;6.70;99.90;;;;;;5037018;28;20036;-84
2024/02/24 01:23:14;;;;;;;5.20;1.60;;;6.60;99.90;;;;;;5037871;28;20086;-84
2024/02/24 01:25:40;;;;;;;3.35;1.60;;;6.60;99.90;;;;;;5026689;28;20055;-85
2024/02/24 01:28:05;;;;;;;2.75;1.38;;;6.60;99.90;;;;;;5058985;28;20016;-85
2024/02/24 01:30:31;;;;;;;2.58;1.75;;;6.60;99.90;;;;;;5080610;28;20017;-85
2024/02/24 01:32:57;;;;;;;3.00;1.80;;;6.50;99.90;;;;;;5080076;28;20005;-84
2024/02/24 01:35:22;;;;;;;2.55;1.55;;;6.50;99.90;;;;;;5035916;28;20037;-84
2024/02/24 01:37:48;;;;;;;3.75;1.60;;;6.40;99.90;;;;;;5020324;28;20066;-83
2024/02/24 01:40:14;;;;;;;2.50;1.50;;;6.40;99.90;;;;;;5055708;28;20350;-83
2024/02/24 01:42:43;;;;;;;2.78;1.63;;;6.40;99.90;;;;;;5055412;28;20124;-83
2024/02/24 01:45:09;;;;;;;2.35;1.60;;;6.40;99.90;;;;;;5072212;28;20480;-83
2024/02/24 01:47:35;;;;;;;2.65;1.35;;;6.40;99.90;;;;;;5064920;28;20031;-82
2024/02/24 01:50:01;;;;;;;2.33;1.40;;;6.40;99.90;;;;;;5027796;28;20037;-84
2024/02/24 01:52:27;;;;;;;2.40;1.20;;;6.40;99.90;;;;;;5022615;28;20469;-83
2024/02/24 01:54:58;;;;;;;1.80;1.13;;;6.40;99.90;;;;;;5055080;28;20362;-83
2024/02/24 01:57:28;;;;;;;1.48;1.38;;;6.40;99.90;;;;;;5061153;28;20119;-83
2024/02/24 01:59:54;;;;;;;2.40;1.40;;;6.40;99.90;;;;;;5071886;28;20048;-83
2024/02/24 02:02:21;;;;;;;1.83;1.25;;;6.50;99.90;;;;;;5055493;28;20043;-83
2024/02/24 02:04:47;;;;;;;1.30;1.00;;;6.40;99.90;;;;;;5067627;28;20033;-86
2024/02/24 02:07:13;;;;;;;2.53;1.40;;;6.50;99.90;;;;;;5009292;28;20037;-84
2024/02/24 02:09:55;;;;;;;3.65;1.23;;;6.50;99.90;;;;;;5071618;28;20115;-84
2024/02/24 02:12:21;;;;;;;2.88;1.50;;;6.50;99.90;;;;;;5036665;28;20052;-83
2024/02/24 02:14:47;;;;;;;2.45;1.13;;;6.50;99.90;;;;;;5036433;28;20119;-84
2024/02/24 02:17:12;;;;;;;2.90;1.33;;;6.50;99.90;;;;;;5031792;28;20033;-84
2024/02/24 02:19:38;;;;;;;2.35;1.20;;;6.50;99.90;;;;;;5035453;28;20028;-84
2024/02/24 02:22:08;;;;;;;1.65;1.13;;;6.60;99.90;;;;;;5035399;28;20045;-84
2024/02/24 02:24:34;;;;;;;2.17;1.50;;;6.60;99.90;;;;;;5035735;28;20025;-84
2024/02/24 02:27:02;;;;;;;3.20;1.67;;;6.60;99.90;;;;;;5014491;28;20480;-83
2024/02/24 02:29:30;;;;;;;1.65;1.10;;;6.60;99.90;;;;;;5042023;28;20419;-84
2024/02/24 02:31:55;;;;;;;1.90;1.13;;;6.60;99.90;;;;;;5064821;28;20021;-84
2024/02/24 02:34:21;;;;;;;2.22;1.30;;;6.60;99.90;;;;;;5043688;28;20033;-83
2024/02/24 02:36:47;;;;;;;1.95;1.10;;;6.70;99.90;;;;;;5027300;28;20392;-84
2024/02/24 02:39:12;;;;;;;2.33;1.30;;;6.70;99.90;;;;;;5036307;28;20357;-83
2024/02/24 02:41:38;;;;;;;2.80;1.48;;;6.70;99.90;;;;;;5035017;28;20029;-83
2024/02/24 02:44:07;;;;;;;1.65;1.20;;;6.70;99.90;;;;;;5035416;28;20028;-83
2024/02/24 02:46:32;;;;;;;1.52;1.20;;;6.70;99.90;;;;;;5041617;28;20021;-83
2024/02/24 02:48:58;;;;;;;2.28;1.17;;;6.80;99.90;;;;;;5015085;28;20499;-84
2024/02/24 02:51:24;;;;;;;0.85;0.82;;;6.70;99.90;;;;;;5079092;28;20047;-83
2024/02/24 02:53:49;;;;;;;2.95;1.33;;;6.80;99.90;;;;;;5083692;28;20025;-84
2024/02/24 02:56:16;;;;;;;1.65;1.10;;;6.80;99.90;;;;;;5037890;28;20035;-82
2024/02/24 02:58:42;;;;;;;2.30;1.00;;;6.80;99.90;;;;;;5082390;28;20109;-84
2024/02/24 03:01:11;;;;;;;2.97;1.13;;;6.80;99.90;;;;;;5058036;28;20037;-85
2024/02/24 03:03:37;;;;;;;2.75;1.30;;;6.80;99.90;;;;;;5038791;28;20026;-84
2024/02/24 03:06:04;;;;;;;2.22;1.30;;;6.80;99.90;;;;;;5004139;28;20084;-84
2024/02/24 03:08:32;;;;;;;2.05;0.90;;;6.80;99.90;;;;;;5044625;28;20031;-83
2024/02/24 03:11:02;;;;;;;2.67;0.98;;;6.80;99.90;;;;;;5074530;28;20024;-84
2024/02/24 03:13:31;;;;;;;2.55;1.13;;;6.80;99.90;;;;;;5074706;28;20466;-84
2024/02/24 03:15:57;;;;;;;2.08;1.20;;;6.80;99.90;;;;;;5046342;28;20044;-84
2024/02/24 03:18:23;;;;;;;3.03;0.95;;;6.80;99.90;;;;;;5056642;28;20037;-83
2024/02/24 03:20:48;;;;;;;2.15;1.20;;;6.90;99.90;;;;;;5062733;28;20049;-82
2024/02/24 03:23:14;;;;;;;1.88;1.10;;;6.90;99.90;;;;;;5037830;28;20430;-84
2024/02/24 03:25:40;;;;;;;2.25;1.30;;;6.90;99.90;;;;;;5055988;28;20029;-84
2024/02/24 03:28:07;;;;;;;1.33;0.82;;;6.90;99.90;;;;;;5004856;28;20032;-83
2024/02/24 03:30:32;;;;;;;3.05;1.20;;;6.90;99.90;;;;;;5055753;28;20060;-84
2024/02/24 03:33:01;;;;;;;1.92;1.13;;;6.90;99.90;;;;;;5021188;28;20384;-87
2024/02/24 03:35:27;;;;;;;2.03;1.13;;;6.90;99.90;;;;;;5040707;28;20021;-84
2024/02/24 03:37:52;;;;;;;2.58;1.00;;;6.90;99.90;;;;;;5051920;28;20087;-83
2024/02/24 03:40:18;;;;;;;1.92;1.00;;;6.90;99.90;;;;;;5021125;28;20026;-84
2024/02/24 03:42:44;;;;;;;1.60;1.25;;;6.90;99.90;;;;;;5037635;28;20029;-85
2024/02/24 03:45:10;;;;;;;1.40;1.17;;;6.90;99.90;;;;;;5037944;28;20526;-85
2024/02/24 03:47:35;;;;;;;2.92;1.20;;;6.90;99.90;;;;;;5041423;28;20044;-85
2024/02/24 03:50:01;;;;;;;2.10;1.17;;;6.90;99.90;;;;;;5055199;28;20392;-86
2024/02/24 03:52:27;;;;;;;1.88;1.25;;;6.90;99.90;;;;;;5076093;28;20147;-85
2024/02/24 03:54:52;;;;;;;1.17;1.08;;;6.90;99.90;;;;;;5046671;28;20091;-85
2024/02/24 03:57:18;;;;;;;2.60;1.20;;;6.90;99.90;;;;;;5037585;28;20051;-85
2024/02/24 03:59:44;;;;;;;1.92;1.20;;;6.90;99.90;;;;;;5041070;28;20054;-85
2024/02/24 04:02:09;;;;;;;2.08;1.02;;;6.90;99.90;;;;;;5035675;28;20036;-85
2024/02/24 04:04:35;;;;;;;2.25;1.27;;;6.90;99.90;;;;;;5047805;28;20430;-85
2024/02/24 04:07:02;;;;;;;2.45;1.27;;;6.90;99.90;;;;;;5019002;28;20033;-85
2024/02/24 04:09:30;;;;;;;4.15;1.40;;;6.90;99.90;;;;;;5038124;28;20037;-84
2024/02/24 04:11:56;;;;;;;2.25;1.40;;;6.90;99.90;;;;;;5065713;28;20416;-85
2024/02/24 04:14:22;;;;;;;2.00;1.42;;;6.90;99.90;;;;;;5064182;28;20055;-84
2024/02/24 04:16:47;;;;;;;2.28;1.35;;;6.90;99.90;;;;;;5066742;28;20052;-85
2024/02/24 04:19:13;;;;;;;1.98;1.30;;;6.90;99.90;;;;;;5061348;28;20025;-86
2024/02/24 04:21:39;;;;;;;1.77;1.60;;;6.90;99.90;;;;;;5023456;28;20013;-84
2024/02/24 04:24:05;;;;;;;3.35;1.60;;;6.80;99.90;;;;;;5073564;28;20115;-86
2024/02/24 04:26:31;;;;;;;3.35;1.38;;;6.80;99.90;;;;;;5033061;28;20037;-84
2024/02/24 04:28:57;;;;;;;2.50;1.33;;;6.80;99.90;;;;;;5037327;28;20477;-84
2024/02/24 04:31:22;;;;;;;2.83;1.50;;;6.80;99.90;;;;;;5037199;28;20061;-84
2024/02/24 04:33:48;;;;;;;2.42;1.35;;;6.80;99.90;;;;;;5036644;28;20457;-84
2024/02/24 04:36:14;;;;;;;2.17;1.60;;;6.70;99.90;;;;;;5044667;28;20037;-84
2024/02/24 04:38:39;;;;;;;1.98;1.40;;;6.70;99.90;;;;;;5020351;28;20025;-84
2024/02/24 04:41:08;;;;;;;2.35;1.50;;;6.80;99.90;;;;;;5019615;28;20021;-86
2024/02/24 04:43:34;;;;;;;1.48;1.30;;;6.80;99.90;;;;;;5036644;28;20079;-85
2024/02/24 04:46:00;;;;;;;1.50;1.40;;;6.80;99.90;;;;;;5035834;28;20128;-83
2024/02/24 04:48:25;;;;;;;2.78;1.58;;;6.80;99.90;;;;;;5003269;28;20025;-84
2024/02/24 04:50:51;;;;;;;3.55;1.80;;;6.80;99.90;;;;;;5044123;28;20016;-84
2024/02/24 04:53:17;;;;;;;3.80;1.52;;;6.80;99.90;;;;;;5025502;28;20431;-85
2024/02/24 04:55:42;;;;;;;1.80;1.35;;;6.90;99.90;;;;;;5010367;28;20377;-85
2024/02/24 04:58:08;;;;;;;2.53;1.70;;;6.90;99.90;;;;;;5056925;28;20111;-85
2024/02/24 05:00:34;;;;;;;2.05;1.40;;;7.00;99.90;;;;;;5038885;28;20112;-84
2024/02/24 05:03:00;;;;;;;2.40;1.50;;;7.00;99.90;;;;;;5019794;28;20490;-83
2024/02/24 05:05:25;;;;;;;2.00;1.70;;;7.00;99.90;;;;;;5036285;28;20115;-84
2024/02/24 05:07:51;;;;;;;2.65;1.80;;;7.00;99.90;;;;;;5036408;28;20033;-83
2024/02/24 05:10:17;;;;;;;4.18;1.90;;;7.00;99.90;;;;;;5037777;28;20031;-84
2024/02/24 05:12:47;;;;;;;2.55;1.95;;;7.10;99.90;;;;;;5053073;28;20095;-84
2024/02/24 05:15:17;;;;;;;2.78;1.75;;;7.00;99.90;;;;;;5036764;28;20112;-84
2024/02/24 05:17:44;;;;;;;3.17;1.83;;;7.10;99.90;;;;;;5045844;28;20022;-84
2024/02/24 05:20:11;;;;;;;2.08;1.45;;;7.10;99.90;;;;;;5016669;28;20108;-86
2024/02/24 05:22:37;;;;;;;2.97;1.50;;;7.10;99.90;;;;;;5031316;28;20033;-84
2024/02/24 05:25:03;;;;;;;1.90;1.30;;;7.10;99.90;;;;;;5051043;28;20091;-84
2024/02/24 05:27:30;;;;;;;2.30;1.60;;;7.10;99.90;;;;;;5040156;28;20040;-84
2024/02/24 05:29:56;;;;;;;1.77;1.50;;;7.10;99.90;;;;;;5029310;28;20487;-84
2024/02/24 05:32:21;;;;;;;2.95;1.85;;;7.20;99.90;;;;;;5020377;28;20033;-83
2024/02/24 05:34:47;;;;;;;1.55;1.27;;;7.20;99.90;;;;;;5024381;28;20017;-84
2024/02/24 05:37:13;;;;;;;3.20;1.80;;;7.20;99.90;;;;;;5054763;28;20527;-85
2024/02/24 05:39:38;;;;;;;2.67;1.70;;;7.20;99.90;;;;;;5047028;28;20103;-85
2024/02/24 05:42:05;;;;;;;2.78;1.42;;;7.30;99.90;;;;;;5085217;28;20024;-85
2024/02/24 05:44:31;;;;;;;2.08;1.52;;;7.30;99.90;;;;;;5076718;28;20105;-84
2024/02/24 05:47:00;;;;;;;2.83;1.58;;;7.30;99.90;;;;;;5072395;28;20036;-85
2024/02/24 05:49:26;;;;;;;1.80;1.40;;;7.30;99.90;;;;;;5065359;28;20036;-85
2024/02/24 05:51:51;;;;;;;2.35;1.60;;;7.30;99.90;;;;;;5074101;28;20017;-85
2024/02/24 05:54:17;;;;;;;1.92;1.35;;;7.30;99.90;;;;;;5035950;28;20384;-83
2024/02/24 05:56:42;;;;;;;3.80;1.88;;;7.30;99.90;;;;;;5042466;28;20052;-84
2024/02/24 05:59:08;;;;;;;3.22;1.67;;;7.30;99.90;;;;;;5056148;28;20048;-83
2024/02/24 06:01:34;;;;;;;2.85;1.40;;;7.40;99.90;;;;;;5048463;28;20387;-84
2024/02/24 06:04:00;;;;;;;1.65;1.55;;;7.40;99.90;;;;;;5055763;28;20075;-84
2024/02/24 06:06:27;;;;;;;1.60;1.50;;;7.40;99.90;;;;;;5023202;28;20107;-84
2024/02/24 06:08:53;;;;;;;1.77;1.30;;;7.40;99.90;;;;;;5039024;28;20461;-84
2024/02/24 06:11:18;;;;;;;3.15;1.50;;;7.40;99.90;;;;;;4999225;28;20025;-85
2024/02/24 06:13:46;;;;;;;2.40;1.50;;;7.50;99.90;;;;;;5035200;28;20098;-85
2024/02/24 06:16:12;;;;;;;3.38;1.52;;;7.50;99.90;;;;;;4996550;28;20078;-85
2024/02/24 06:18:38;;;;;;;2.20;1.60;;;7.40;99.90;;;;;;5031791;28;20029;-83
2024/02/24 06:21:04;;;;;;;2.60;1.80;;;7.40;99.90;;;;;;5011384;28;20109;-83
2024/02/24 06:23:30;;;;;;;2.15;1.63;;;7.40;99.90;;;;;;5018136;28;20049;-83
2024/02/24 06:25:56;;;;;;;2.35;1.83;;;7.40;99.90;;;;;;5020912;28;20518;-83
2024/02/24 06:28:22;;;;;;;3.33;1.63;;;7.50;99.90;;;;;;5038702;28;20398;-85
2024/02/24 06:30:47;;;;;;;1.60;1.50;;;7.40;99.90;;;;;;5040687;28;20029;-84
2024/02/24 06:33:13;;;;;;;1.40;1.30;;;7.50;99.90;;;;;;5033352;28;20025;-84
2024/02/24 06:35:39;;;;;;;2.45;1.60;;;7.40;99.90;;;;;;5028577;28;20060;-84
2024/02/24 06:38:05;;;;;;;2.42;1.92;;;7.50;99.90;;;;;;5059226;28;20090;-84
2024/02/24 06:40:30;;;;;;;2.25;1.80;;;7.50;99.90;;;;;;5041421;28;20507;-84
2024/02/24 06:42:56;;;;;;;1.80;1.50;;;7.50;99.90;;;;;;5059810;28;20032;-84
2024/02/24 06:45:21;;;;;;;1.60;1.33;;;7.50;99.90;;;;;;5060812;28;20439;-85
2024/02/24 06:47:47;;;;;;;2.92;1.70;;;7.50;99.90;;;;;;5050831;28;20395;-84
2024/02/24 06:50:13;;;;;;;3.35;1.60;;;7.50;99.90;;;;;;5023849;28;20025;-83
2024/02/24 06:52:39;;;;;;;3.33;1.88;;;7.50;99.90;;;;;;5060512;28;20711;-84
2024/02/24 06:55:04;;;;;;;2.10;1.58;;;7.50;99.90;;;;;;5057725;28;20025;-84
2024/02/24 06:57:30;;;;;;;3.20;1.98;;;7.50;99.90;;;;;;5039219;28;20045;-84
2024/02/24 06:59:56;;;;;;;2.33;1.80;;;7.50;99.90;;;;;;5030614;28;20112;-84
2024/02/24 07:02:21;;;;;;;1.95;1.73;;;7.50;99.90;;;;;;5033633;28;20036;-85
2024/02/24 07:04:47;;;;;;;2.35;1.65;;;7.50;99.90;;;;;;5063627;28;20070;-84
2024/02/24 07:07:13;;;;;;;1.58;1.40;;;7.50;99.90;;;;;;5073329;28;20021;-85
2024/02/24 07:09:38;;;;;;;2.13;1.60;;;7.50;99.90;;;;;;5079968;28;20017;-85
2024/02/24 07:12:05;;;;;;;3.22;1.60;;;7.50;99.90;;;;;;5046775;28;20009;-85
2024/02/24 07:14:31;;;;;;;2.20;1.80;;;7.50;99.90;;;;;;5046906;28;20036;-85
2024/02/24 07:16:56;;;;;;;2.22;1.75;;;7.60;99.90;;;;;;5065542;28;20035;-84
2024/02/24 07:19:24;;;;;;;2.72;1.88;;;7.60;99.90;;;;;;5061802;28;20017;-84
2024/02/24 07:21:50;;;;;;;2.75;1.75;;;7.60;99.90;;;;;;5021881;28;20059;-84
2024/02/24 07:24:16;;;;;;;2.92;2.13;;;7.60;99.90;;;;;;5021575;28;20025;-83
2024/02/24 07:26:45;;;;;;;3.30;2.13;;;7.60;99.90;;;;;;5021358;28;20086;-85
2024/02/24 07:29:10;;;;;;;3.38;2.10;;;7.60;99.90;;;;;;5038985;28;20041;-84
2024/02/24 07:31:37;;;;;;;5.53;2.38;;;7.60;99.90;;;;;;5022614;28;20037;-83
2024/02/24 07:34:03;;;;;;;2.80;2.20;;;7.60;99.90;;;;;;5062291;28;20525;-83
2024/02/24 07:36:31;;;;;;;4.43;2.33;;;7.60;99.90;;;;;;5062178;28;20025;-85
2024/02/24 07:39:00;;;;;;;3.30;2.10;;;7.70;99.90;;;;;;5038092;28;20384;-84
2024/02/24 07:41:26;;;;;;;2.75;2.10;;;7.60;99.90;;;;;;5037899;28;20465;-85
2024/02/24 07:43:51;;;;;;;4.68;2.28;;;7.70;99.90;;;;;;5037758;28;20058;-84
2024/02/24 07:46:29;;;;;;;4.22;2.10;;;7.70;99.90;;;;;;5005104;28;20033;-85
2024/02/24 07:49:04;;;;;;;2.17;1.77;;;7.70;99.90;;;;;;5045276;28;20017;-85
2024/02/24 07:51:30;;;;;;;2.85;1.85;;;7.70;99.90;;;;;;5042755;28;20040;-85
2024/02/24 07:53:56;;;;;;;3.30;1.70;;;7.70;99.90;;;;;;5059829;28;20440;-83
2024/02/24 07:56:23;;;;;;;2.47;1.77;;;7.70;99.90;;;;;;5037486;28;20047;-84
2024/02/24 07:58:52;;;;;;;2.70;1.90;;;7.70;99.90;;;;;;5057092;28;20026;-83
2024/02/24 08:01:18;;;;;;;2.63;2.05;;;7.80;99.90;;;;;;5054130;28;20392;-83
2024/02/24 08:03:44;;;;;;;3.10;2.30;;;7.80;99.90;;;;;;5031470;28;20027;-82
2024/02/24 08:06:10;;;;;;;3.17;1.80;;;7.80;99.90;;;;;;5025291;28;20039;-84
2024/02/24 08:08:36;;;;;;;2.22;2.03;;;7.90;99.90;;;;;;5034285;28;20120;-84
2024/02/24 08:11:04;;;;;;;1.95;1.73;;;7.90;99.90;;;;;;5059897;28;20069;-85
2024/02/24 08:13:30;;;;;;;2.40;1.95;;;7.90;99.90;;;;;;5061966;28;20135;-85
2024/02/24 08:15:56;;;;;;;2.72;1.95;;;7.90;99.90;;;;;;5069160;28;20060;-89
2024/02/24 08:18:22;;;;;;;3.65;2.22;;;8.00;99.90;;;;;;5042287;28;20459;-85
2024/02/24 08:20:49;;;;;;;2.60;2.10;;;8.00;99.90;;;;;;5049243;28;20665;-85
2024/02/24 08:23:15;;;;;;;3.45;2.03;;;8.10;99.90;;;;;;5038071;28;20021;-85
2024/02/24 08:25:41;;;;;;;2.28;1.90;;;8.10;99.90;;;;;;5037384;28;20063;-85
2024/02/24 08:28:06;;;;;;;2.80;1.80;;;8.10;99.90;;;;;;5054882;28;20025;-86
2024/02/24 08:30:32;;;;;;;3.15;2.10;;;8.10;99.90;;;;;;5037299;28;20036;-85
2024/02/24 08:32:58;;;;;;;3.88;2.00;;;8.10;99.90;;;;;;5047314;28;20028;-85
2024/02/24 08:35:24;;;;;;;2.85;1.90;;;8.10;99.90;;;;;;5049627;28;20095;-85
2024/02/24 08:37:50;;;;;;;3.72;2.17;;;8.10;99.90;;;;;;5015302;28;20038;-85
2024/02/24 08:40:15;;;;;;;2.60;1.60;;;8.20;99.90;;;;;;5042098;28;20029;-84
2024/02/24 08:42:41;;;;;;;2.35;1.67;;;8.10;99.90;;;;;;5055948;28;20028;-85
2024/02/24 08:45:07;;;;;;;2.83;1.70;;;8.10;99.90;;;;;;5054186;28;20087;-85
2024/02/24 08:47:33;;;;;;;2.88;2.10;;;8.10;99.90;;;;;;5035645;28;20037;-85
2024/02/24 08:49:58;;;;;;;2.78;1.92;;;8.10;99.90;;;;;;5039598;28;20152;-85
2024/02/24 08:52:24;;;;;;;2.83;1.88;;;8.20;99.90;;;;;;5036383;28;20039;-85
2024/02/24 08:54:50;;;;;;;4.20;1.90;;;8.20;99.90;;;;;;5036202;28;20032;-85
2024/02/24 08:57:16;;;;;;;2.40;1.70;;;8.20;99.90;;;;;;5050632;28;20025;-85
2024/02/24 08:59:42;;;;;;;3.47;1.88;;;8.20;99.90;;;;;;5021858;28;20381;-85
2024/02/24 09:02:07;;;;;;;2.63;1.88;;;8.20;99.90;;;;;;5036487;28;20029;-84
2024/02/24 09:04:37;;;;;;;2.58;2.00;;;8.20;99.90;;;;;;5062722;28;20025;-85
2024/02/24 09:07:03;;;;;;;2.17;1.70;;;8.30;99.90;;;;;;5064865;28;20063;-84
2024/02/24 09:09:29;;;;;;;2.53;1.63;;;8.30;99.90;;;;;;5052395;28;20496;-85
2024/02/24 09:11:55;;;;;;;2.85;1.58;;;8.40;99.90;;;;;;5019712;28;20378;-86
2024/02/24 09:14:20;;;;;;;2.35;1.65;;;8.40;99.90;;;;;;5052663;28;20053;-84
2024/02/24 09:16:46;;;;;;;4.20;1.85;;;8.30;99.90;;;;;;5035794;28;20040;-84
2024/02/24 09:19:12;;;;;;;2.53;1.85;;;8.30;99.90;;;;;;5053315;28;20025;-85
2024/02/24 09:21:37;;;;;;;2.10;1.90;;;8.30;99.90;;;;;;5055757;28;20032;-85
2024/02/24 09:24:03;;;;;;;2.17;1.83;;;8.40;99.90;;;;;;5055471;28;20033;-85
2024/02/24 09:26:29;;;;;;;2.78;1.70;;;8.30;99.90;;;;;;5021411;28;20029;-85
2024/02/24 09:28:54;;;;;;;1.88;1.60;;;8.30;99.90;;;;;;5038763;28;20036;-85
2024/02/24 09:31:20;;;;;;;2.17;1.60;;;8.30;99.90;;;;;;5035873;28;20029;-84
2024/02/24 09:33:54;;;;;;;1.70;1.52;;;8.30;99.90;;;;;;5036872;28;20032;-84
2024/02/24 09:36:19;;;;;;;1.95;1.50;;;8.20;99.90;;;;;;5053692;28;20054;-84
2024/02/24 09:38:45;;;;;;;1.45;1.20;;;8.20;99.90;;;;;;5053607;28;20036;-85
2024/02/24 09:41:11;;;;;;;1.65;1.13;;;8.10;99.90;;;;;;5032784;28;20025;-85
2024/02/24 09:43:38;;;;;;;2.20;1.20;;;8.10;99.90;;;;;;5053096;28;20033;-84
2024/02/24 09:46:08;;;;;;;1.17;1.00;;;7.90;99.90;;;;;;5054084;28;20100;-85
2024/02/24 09:48:34;;;;;;;2.95;1.20;;;7.80;99.90;;;;;;5055664;28;20036;-84
2024/02/24 09:51:00;;;;;;;5.13;1.58;;;7.70;99.90;;;;;;5047018;28;20219;-84
2024/02/24 09:53:25;;;;;;;2.20;1.60;;;7.70;99.90;;;;;;5073152;28;20024;-83
2024/02/24 09:55:53;;;;;;;1.98;1.55;;;7.70;99.90;;;;;;5076427;28;20478;-83
2024/02/24 09:58:20;;;;;;;3.40;2.05;;;7.60;99.90;;;;;;5081529;28;20460;-86
2024/02/24 10:00:51;;;;;;;2.22;1.65;;;7.60;99.90;;;;;;5079888;28;20008;-86
2024/02/24 10:03:16;;;;;;;2.40;1.90;;;7.60;99.90;;;;;;5082362;28;20005;-85
2024/02/24 10:05:44;;;;;;;2.95;2.10;;;7.60;99.90;;;;;;5072038;28;20039;-86
2024/02/24 10:08:11;;;;;;;3.17;2.50;;;7.60;99.90;;;;;;5082497;28;20025;-85
2024/02/24 10:10:36;;;;;;;2.55;2.25;;;7.60;99.90;;;;;;5069823;28;20024;-85
2024/02/24 10:13:03;;;;;;;4.18;2.80;;;7.50;99.90;;;;;;5058062;28;20075;-85
2024/02/24 10:15:29;;;;;;;3.20;2.47;;;7.50;99.90;;;;;;5057468;28;20021;-85
2024/02/24 10:17:57;;;;;;;3.97;2.47;;;7.50;99.90;;;;;;5038091;28;20534;-85
2024/02/24 10:20:23;;;;;;;3.80;2.40;;;7.50;99.90;;;;;;5053736;28;20199;-86
2024/02/24 10:22:48;;;;;;;2.70;2.20;;;7.50;99.90;;;;;;5042295;28;20025;-85
2024/02/24 10:25:14;;;;;;;2.58;2.35;;;7.50;99.90;;;;;;5050755;28;20029;-84
2024/02/24 10:27:45;;;;;;;2.53;2.10;;;7.50;99.90;;;;;;5022233;28;20041;-84
2024/02/24 10:30:11;;;;;;;4.07;2.47;;;7.50;99.90;;;;;;5039408;28;20079;-85
2024/02/24 10:32:37;;;;;;;3.30;2.30;;;7.50;99.90;;;;;;5041424;28;20033;-83
2024/02/24 10:35:04;;;;;;;2.83;2.38;;;7.50;99.90;;;;;;5056748;28;20529;-84
2024/02/24 10:37:34;;;;;;;3.28;2.88;;;7.50;99.90;;;;;;5039197;28;20041;-84
2024/02/24 10:40:03;;;;;;;2.65;2.42;;;7.50;99.90;;;;;;5020340;28;20139;-83
2024/02/24 10:42:29;;;;;;;4.78;3.42;;;7.50;99.90;;;;;;5035522;28;20091;-83
2024/02/24 10:44:58;;;;;;;4.65;2.67;;;7.50;99.90;;;;;;5036419;28;20049;-84
2024/02/24 10:47:24;;;;;;;3.97;2.55;;;7.60;99.90;;;;;;5018761;28;20108;-84
2024/02/24 10:49:50;;;;;;;3.92;2.67;;;7.60;99.90;;;;;;5033336;28;20472;-86
2024/02/24 10:52:17;;;;;;;3.67;2.53;;;7.70;99.90;;;;;;5075491;28;20031;-84
2024/02/24 10:54:45;;;;;;;3.35;2.25;;;7.70;99.90;;;;;;5045718;28;20025;-85
2024/02/24 10:57:13;;;;;;;3.55;2.72;;;7.80;99.90;;;;;;5040540;28;20139;-83
2024/02/24 10:59:39;;;;;;;5.68;2.97;;;7.80;99.90;;;;;;5055487;28;20025;-83
2024/02/24 11:02:11;;;;;;;5.03;3.10;;;7.90;99.90;;;;;;5040273;28;20039;-83
2024/02/24 11:04:38;;;;;;;3.00;2.13;;;7.90;99.90;;;;;;5039101;28;20017;-83
2024/02/24 11:07:07;;;;;;;3.00;2.42;;;7.80;99.90;;;;;;5055916;28;20122;-83
2024/02/24 11:09:38;;;;;;;3.28;2.63;;;7.80;99.90;;;;;;5058873;28;20476;-83
2024/02/24 11:12:14;;;;;;;3.55;2.47;;;7.90;99.90;;;;;;5032036;28;20039;-83
2024/02/24 11:14:47;;;;;;;5.60;2.67;;;7.90;99.90;;;;;;5051409;28;20049;-83
2024/02/24 11:17:33;;;;;;;3.55;2.20;;;7.80;99.90;;;;;;5032990;28;20033;-84
2024/02/24 11:19:59;;;;;;;3.13;2.30;;;8.00;99.90;;;;;;5055792;28;20032;-85
2024/02/24 11:22:27;;;;;;;2.85;2.05;;;8.10;99.90;;;;;;5036846;28;20021;-84
2024/02/24 11:25:03;;;;;;;2.50;2.20;;;8.20;99.90;;;;;;5061474;28;20048;-87
2024/02/24 11:27:30;;;;;;;2.13;1.92;;;8.30;99.90;;;;;;5081168;28;20024;-83
2024/02/24 11:30:34;;;;;;;6.75;2.53;;;8.30;99.90;;;;;;5075040;28;20009;-85
2024/02/24 11:33:29;;;;;;;3.47;1.95;;;8.40;99.90;;;;;;5078839;28;20055;-85
2024/02/24 11:35:55;;;;;;;3.33;1.90;;;8.50;99.90;;;;;;5098638;28;20107;-85
2024/02/24 11:38:22;;;;;;;2.80;1.90;;;8.50;99.90;;;;;;5077301;28;20024;-85
2024/02/24 11:40:49;;;;;;;3.88;2.20;;;8.50;99.90;;;;;;5021484;28;20119;-84
2024/02/24 11:43:16;;;;;;;4.25;1.83;;;8.60;99.90;;;;;;5041098;28;20361;-85
2024/02/24 11:45:50;;;;;;;2.72;1.70;;;8.60;99.90;;;;;;5066599;28;20371;-84
2024/02/24 11:48:17;;;;;;;1.85;1.50;;;8.60;99.90;;;;;;5056354;28;20042;-85
2024/02/24 11:50:43;;;;;;;2.03;1.40;;;8.50;99.90;;;;;;5043575;28;20111;-85
2024/02/24 11:53:10;;;;;;;3.00;1.58;;;8.50;99.90;;;;;;5068899;28;20086;-86
2024/02/24 11:55:36;;;;;;;4.47;1.42;;;8.50;99.90;;;;;;5037863;28;20042;-85
2024/02/24 11:58:07;;;;;;;1.85;1.30;;;8.50;99.90;;;;;;5037305;28;20468;-84
2024/02/24 12:00:39;;;;;;;2.97;1.33;;;8.50;99.90;;;;;;5034566;28;20033;-85
2024/02/24 12:03:16;;;;;;;2.58;1.38;;;8.50;99.90;;;;;;5033225;28;20032;-84
2024/02/24 12:05:42;;;;;;;4.25;1.38;;;8.50;99.90;;;;;;5059045;28;20112;-83
2024/02/24 12:08:11;;;;;;;2.20;1.13;;;8.50;99.90;;;;;;5042405;28;20047;-83
2024/02/24 12:10:38;;;;;;;1.90;1.23;;;8.60;99.90;;;;;;5062549;28;20493;-82
2024/02/24 12:13:06;;;;;;;2.60;1.17;;;8.60;99.90;;;;;;5058863;28;20084;-83
2024/02/24 12:15:34;;;;;;;2.78;1.73;;;8.60;99.90;;;;;;5049645;28;20049;-83
2024/02/24 12:18:00;;;;;;;2.60;0.90;;;8.60;99.90;;;;;;5056330;28;20480;-83
2024/02/24 12:20:26;;;;;;;3.67;1.40;;;8.60;99.90;;;;;;5058732;28;20059;-85
2024/02/24 12:22:52;;;;;;;2.95;1.25;;;8.60;99.90;;;;;;5048332;28;20107;-83
2024/02/24 12:25:20;;;;;;;2.00;1.10;;;8.60;99.90;;;;;;5059959;28;20358;-89
2024/02/24 12:27:48;;;;;;;1.45;1.27;;;8.60;99.90;;;;;;5043487;28;20029;-83
2024/02/24 12:30:13;;;;;;;2.13;1.30;;;8.50;99.90;;;;;;5036356;28;20460;-84
2024/02/24 12:32:40;;;;;;;1.45;1.17;;;8.50;99.90;;;;;;5036717;28;20091;-85
2024/02/24 12:35:08;;;;;;;2.70;1.13;;;8.50;99.90;;;;;;5050461;28;20120;-86
2024/02/24 12:37:34;;;;;;;2.33;1.40;;;8.50;99.90;;;;;;5034577;28;20030;-84
2024/02/24 12:40:00;;;;;;;2.25;1.30;;;8.50;99.90;;;;;;5016815;28;20120;-85
2024/02/24 12:42:27;;;;;;;1.35;1.15;;;8.50;99.90;;;;;;5054916;28;20028;-84
2024/02/24 12:44:52;;;;;;;5.00;1.10;;;8.50;99.90;;;;;;5040075;28;20029;-83
2024/02/24 12:47:19;;;;;;;2.60;1.33;;;8.40;99.90;;;;;;5043570;28;20347;-83
2024/02/24 12:49:45;;;;;;;2.97;1.17;;;8.40;99.90;;;;;;5075718;28;20025;-83
2024/02/24 12:52:11;;;;;;;1.77;1.00;;;8.40;99.90;;;;;;5079256;28;20032;-83
2024/02/24 12:54:36;;;;;;;2.10;1.52;;;8.30;99.90;;;;;;5087403;28;20044;-84